To NAV CANADA Home Page Login to a new session Search on AWWS site Feedback and Comments Disclaimer Vers la page française équivalente Tips FAQ What's new on the site To the Forecasts and Observations / NOTAM section To "File a Flight Plan" website Publications and other links Update of the User's profile FIC Telephone Numbers My Weather Data Folder Route Weather Data Regional Weather Data Local Weather Data To the Forecasts and Observations / NOTAM section
Request Generated 08/30/2016 at 13:06:31 UTC . Weather information available at that time is displayed.

METAR/TAF

WINDSOR/ON    

METAR CYQG 301300Z 24004KT 10SM FEW210 SCT280 22/21 A3018 RMK CC1CI2
SLP219 DENSITY ALT 1300FT=
METAR CYQG 301200Z CCA 22003KT 6SM BR BKN210 BKN280 20/20 A3018 RMK
CC6CI1 CI TR SLP220 DENSITY ALT 1000FT=
METAR CYQG 301200Z 22003KT 6SM BR BKN210 BKN280 20/20 A3018 RMK
CC6CI1 CI TR SLP220 DENSITY ALT 1000FT=
METAR CYQG 301100Z 21002KT 15SM BKN210 BKN280 18/18 A3017 RMK CC5CI1
SLP217 DENSITY ALT 800FT=

TAF CYQG 301138Z 3012/3112 VRB03KT P6SM BKN210
FM301600 22010KT P6SM FEW040 BKN180
FM310400 VRB03KT P6SM BKN050 OVC160
BECMG 3110/3112 02008KT
RMK NXT FCST BY 301800Z=
Your time UTC time
Weather data provided by Environment Canada and NAV CANADA